Chattanooga, Oklahoma
Current Conditions -  °F | °C
As of 4:53 PM on Saturday 25 Oct 2014 (Local Time) from KLAW Reporting Station
Clear Clear  
Wind Chill: 91°   Ceiling: Unl
Heat Index: 91°   Visibility: 10mi
Dew Point: 51°   Wind: 12mph
Humidity: 25%   Direction: 200°SSW
Pressure: 30.03"   Gusts: NA
Location:  34.42°N, 98.66°W
Report Text: KLAW 252153Z AUTO 20010KT 10SM CLR 33/11 A3003 RMK AO2 SLP158 T03280106
Loading
Personal Weather Stations






























Interactive Weather Map
Tropical Storm Tracking
New forecast layout! Learn more

10-Day Weather Forecast

Advertisements
Track Severe Weather on mobile